createdAt,value
2023-04-09T00:00:00.819Z,21.10
2023-04-09T00:02:29.656Z,22.10
2023-04-09T00:04:58.013Z,20.50
2023-04-09T00:07:26.277Z,20.70
2023-04-09T00:09:54.450Z,20.80
2023-04-09T00:12:22.682Z,19.20
2023-04-09T00:14:50.928Z,21.20
2023-04-09T00:17:19.256Z,20.40
2023-04-09T00:19:48.615Z,21.20
2023-04-09T00:22:19.004Z,23.30
2023-04-09T00:24:47.456Z,18.70
2023-04-09T00:27:16.514Z,19.40
2023-04-09T00:29:45.500Z,20.40
2023-04-09T00:32:13.946Z,18.80
2023-04-09T00:34:42.321Z,18.90
2023-04-09T00:37:10.556Z,21.00
2023-04-09T00:39:38.779Z,19.50
2023-04-09T00:42:07.168Z,17.50
2023-04-09T00:44:36.324Z,18.90
2023-04-09T00:47:04.847Z,13.50
2023-04-09T00:49:33.951Z,13.10
2023-04-09T00:52:02.414Z,15.70
2023-04-09T00:54:31.167Z,13.90
2023-04-09T00:56:59.754Z,13.60
2023-04-09T00:59:28.839Z,13.60
2023-04-09T01:01:57.130Z,13.60
2023-04-09T01:04:26.799Z,13.30
2023-04-09T01:07:20.965Z,13.10
2023-04-09T01:10:01.067Z,13.10
2023-04-09T01:12:37.334Z,15.30
2023-04-09T01:17:53.507Z,15.80
2023-04-09T01:20:33.599Z,14.40
2023-04-09T01:23:18.191Z,14.60
2023-04-09T01:26:04.124Z,14.80
2023-04-09T01:28:49.241Z,15.70
2023-04-09T01:31:19.225Z,16.60
2023-04-09T01:33:48.205Z,16.80
2023-04-09T01:36:17.510Z,17.70
2023-04-09T01:38:48.029Z,15.70
2023-04-09T01:41:19.609Z,15.90
2023-04-09T01:43:51.038Z,18.10
2023-04-09T01:46:21.647Z,18.20
2023-04-09T01:48:55.893Z,17.40
2023-04-09T01:51:24.454Z,17.90
2023-04-09T01:53:52.890Z,17.40
2023-04-09T01:56:21.789Z,18.10
2023-04-09T01:58:51.212Z,18.20
2023-04-09T02:01:37.037Z,18.90
2023-04-09T02:04:13.171Z,18.40
2023-04-09T02:06:54.165Z,18.40
2023-04-09T02:09:25.097Z,17.50
2023-04-09T02:11:54.159Z,16.00
2023-04-09T02:14:25.271Z,17.00
2023-04-09T02:16:53.675Z,17.50
2023-04-09T02:19:22.006Z,17.40
2023-04-09T02:21:51.491Z,18.70
2023-04-09T02:24:19.728Z,16.60
2023-04-09T02:26:48.758Z,18.30
2023-04-09T02:29:16.967Z,20.00
2023-04-09T02:31:45.437Z,17.10
2023-04-09T02:34:13.786Z,18.70
2023-04-09T02:36:42.003Z,18.70
2023-04-09T02:39:10.306Z,17.90
2023-04-09T02:41:38.539Z,18.30
2023-04-09T02:44:06.748Z,19.80
2023-04-09T02:46:34.983Z,19.00
2023-04-09T02:49:04.083Z,19.40
2023-04-09T02:51:34.327Z,19.00
2023-04-09T02:54:03.639Z,19.10
2023-04-09T02:56:31.927Z,21.30
2023-04-09T02:59:00.323Z,22.10
2023-04-09T03:01:29.106Z,22.00
2023-04-09T03:03:57.632Z,23.10
2023-04-09T03:06:26.744Z,23.60
2023-04-09T03:08:55.017Z,23.50
2023-04-09T03:11:24.206Z,20.40
2023-04-09T03:13:52.497Z,21.80
2023-04-09T03:16:21.911Z,18.90
2023-04-09T03:18:51.426Z,19.00
2023-04-09T03:21:19.837Z,12.30
2023-04-09T03:23:49.562Z,12.40
2023-04-09T03:26:19.463Z,12.40
2023-04-09T03:28:50.169Z,11.00
2023-04-09T03:31:18.752Z,10.90
2023-04-09T03:33:47.622Z,11.80
2023-04-09T03:36:16.165Z,11.40
2023-04-09T03:39:04.588Z,13.40
2023-04-09T03:41:38.198Z,13.60
2023-04-09T03:44:10.128Z,13.50
2023-04-09T03:46:58.719Z,13.60
2023-04-09T03:49:27.336Z,14.70
2023-04-09T03:52:00.031Z,16.80
2023-04-09T03:54:35.580Z,16.40
2023-04-09T03:57:06.840Z,17.10
2023-04-09T03:59:36.045Z,16.60
2023-04-09T04:02:04.360Z,13.90
2023-04-09T04:04:34.142Z,14.60
2023-04-09T04:07:09.033Z,18.20
2023-04-09T04:09:42.754Z,18.20
2023-04-09T04:12:16.256Z,19.10
2023-04-09T04:15:06.937Z,19.50
2023-04-09T04:17:39.923Z,20.70
2023-04-09T04:20:15.116Z,23.30
2023-04-09T04:22:54.020Z,22.50
2023-04-09T04:25:25.445Z,22.50
2023-04-09T04:27:55.108Z,22.50
2023-04-09T04:30:26.217Z,20.20
2023-04-09T04:33:01.248Z,19.00
2023-04-09T04:35:31.791Z,20.50
2023-04-09T04:38:01.702Z,16.40
2023-04-09T04:40:30.374Z,16.00
2023-04-09T04:43:01.657Z,16.50
2023-04-09T04:45:30.708Z,17.20
2023-04-09T04:48:04.882Z,14.60
2023-04-09T04:50:33.202Z,16.40
2023-04-09T04:53:05.579Z,13.00
2023-04-09T04:55:40.078Z,12.00
2023-04-09T04:58:09.453Z,16.10
2023-04-09T05:00:49.973Z,22.00
2023-04-09T05:03:18.415Z,19.50
2023-04-09T05:06:06.168Z,20.40
2023-04-09T05:08:41.819Z,20.00
2023-04-09T05:11:16.705Z,20.30
2023-04-09T05:13:46.518Z,16.30
2023-04-09T05:16:20.574Z,16.30
2023-04-09T05:18:54.073Z,19.10
2023-04-09T05:21:22.770Z,16.60
2023-04-09T05:23:56.012Z,18.10
2023-04-09T05:26:24.325Z,18.70
2023-04-09T05:28:56.630Z,20.10
2023-04-09T05:31:25.256Z,19.30
2023-04-09T05:34:12.650Z,15.30
2023-04-09T05:36:48.953Z,15.30
2023-04-09T05:39:17.344Z,16.10
2023-04-09T05:41:46.890Z,14.90
2023-04-09T05:44:34.737Z,14.90
2023-04-09T05:47:08.273Z,15.40
2023-04-09T05:49:48.090Z,15.90
2023-04-09T05:52:17.990Z,14.30
2023-04-09T05:54:47.213Z,15.90
2023-04-09T05:57:18.445Z,14.50
2023-04-09T05:59:52.337Z,12.30
2023-04-09T06:02:25.841Z,10.30
2023-04-09T06:04:55.856Z,11.00
2023-04-09T06:07:24.358Z,9.40
2023-04-09T06:09:52.591Z,10.60
2023-04-09T06:12:21.122Z,9.30
2023-04-09T06:14:50.240Z,11.10
2023-04-09T06:17:19.647Z,8.90
2023-04-09T06:19:50.955Z,7.00
2023-04-09T06:22:19.357Z,9.30
2023-04-09T06:24:48.120Z,9.00
2023-04-09T06:27:19.284Z,8.20
2023-04-09T06:29:50.303Z,6.80
2023-04-09T06:32:19.560Z,6.80
2023-04-09T06:34:48.558Z,7.40
2023-04-09T06:37:16.894Z,7.90
2023-04-09T06:39:54.185Z,7.80
2023-04-09T06:42:28.548Z,6.20
2023-04-09T06:45:10.766Z,6.70
2023-04-09T06:47:39.090Z,8.70
2023-04-09T06:50:08.672Z,8.50
2023-04-09T06:52:37.265Z,10.00
2023-04-09T06:55:11.838Z,9.20
2023-04-09T06:57:41.733Z,9.20
2023-04-09T07:00:10.902Z,11.80
2023-04-09T07:02:39.758Z,15.70
2023-04-09T07:05:11.858Z,17.60
2023-04-09T07:07:40.628Z,15.80
2023-04-09T07:10:10.825Z,16.90
2023-04-09T07:12:39.180Z,12.10
2023-04-09T07:15:09.443Z,11.10
2023-04-09T07:17:39.902Z,9.90
2023-04-09T07:20:08.691Z,8.50
2023-04-09T07:22:36.908Z,8.70
2023-04-09T07:25:07.002Z,9.10
2023-04-09T07:27:35.603Z,9.90
2023-04-09T07:30:06.828Z,10.40
2023-04-09T07:32:34.982Z,14.90
2023-04-09T07:35:05.202Z,14.10
2023-04-09T07:37:33.546Z,16.80
2023-04-09T07:40:04.356Z,17.80
2023-04-09T07:42:33.703Z,16.20
2023-04-09T07:45:03.564Z,18.00
2023-04-09T07:47:33.960Z,18.00
2023-04-09T07:50:02.564Z,20.10
2023-04-09T07:52:33.528Z,18.10
2023-04-09T07:55:01.956Z,17.60
2023-04-09T07:57:33.859Z,21.10
2023-04-09T08:00:02.668Z,20.50
2023-04-09T08:02:42.202Z,21.90
2023-04-09T08:05:10.947Z,22.30
2023-04-09T08:07:39.854Z,23.10
2023-04-09T08:10:14.335Z,21.40
2023-04-09T08:12:48.069Z,21.10
2023-04-09T08:15:16.523Z,22.00
2023-04-09T08:17:46.561Z,20.70
2023-04-09T08:20:17.443Z,20.60
2023-04-09T08:22:45.910Z,23.00
2023-04-09T08:25:14.126Z,22.20
2023-04-09T08:27:43.398Z,22.10
2023-04-09T08:30:12.349Z,22.20
2023-04-09T08:32:40.872Z,22.90
2023-04-09T08:35:09.980Z,22.20
2023-04-09T08:37:40.153Z,23.00
2023-04-09T08:40:09.612Z,22.60
2023-04-09T08:42:46.122Z,19.00
2023-04-09T08:45:14.525Z,23.50
2023-04-09T08:47:46.248Z,22.30
2023-04-09T08:50:15.724Z,23.70
2023-04-09T08:52:48.466Z,24.40
2023-04-09T08:55:17.007Z,22.90
2023-04-09T08:57:45.420Z,22.00
2023-04-09T09:00:14.104Z,23.50
2023-04-09T09:03:06.745Z,24.00
2023-04-09T09:05:43.006Z,22.70
2023-04-09T09:08:15.754Z,23.30
2023-04-09T09:10:46.212Z,24.20
2023-04-09T09:13:20.215Z,22.70
2023-04-09T09:15:53.141Z,23.90
2023-04-09T09:18:38.293Z,22.70
2023-04-09T09:21:17.895Z,22.90
2023-04-09T09:23:48.561Z,22.40
2023-04-09T09:26:25.678Z,23.00
2023-04-09T09:28:55.030Z,21.90
2023-04-09T09:31:23.991Z,23.00
2023-04-09T09:33:53.575Z,23.90
2023-04-09T09:36:35.736Z,24.30
2023-04-09T09:39:05.592Z,21.10
2023-04-09T09:41:33.994Z,22.60
2023-04-09T09:44:04.709Z,21.60
2023-04-09T09:46:42.792Z,21.60
2023-04-09T09:49:11.612Z,24.50
2023-04-09T09:51:41.656Z,21.60
2023-04-09T09:54:17.942Z,25.10
2023-04-09T09:56:54.043Z,23.50
2023-04-09T09:59:32.256Z,21.10
2023-04-09T10:02:06.350Z,21.00
2023-04-09T10:04:36.289Z,22.70
2023-04-09T10:07:07.740Z,22.10
2023-04-09T10:09:41.730Z,20.80
2023-04-09T10:12:12.405Z,22.40
2023-04-09T10:14:42.446Z,20.30
2023-04-09T10:17:11.702Z,20.90
2023-04-09T10:19:47.945Z,20.30
2023-04-09T10:22:20.560Z,22.60
2023-04-09T10:24:50.110Z,20.30
2023-04-09T10:27:19.689Z,19.00
2023-04-09T10:29:53.305Z,20.70
2023-04-09T10:32:26.592Z,21.70
2023-04-09T10:35:01.920Z,21.10
2023-04-09T10:37:32.098Z,18.10
2023-04-09T10:40:04.237Z,21.20
2023-04-09T10:42:37.452Z,21.50
2023-04-09T10:45:15.400Z,21.10
2023-04-09T10:47:46.556Z,21.30
2023-04-09T10:50:24.099Z,20.80
2023-04-09T10:52:59.756Z,19.80
2023-04-09T10:55:42.127Z,19.40
2023-04-09T10:58:13.563Z,18.80
2023-04-09T11:00:48.846Z,19.10
2023-04-09T11:03:42.776Z,19.40
2023-04-09T11:06:12.268Z,19.70
2023-04-09T11:08:41.857Z,18.50
2023-04-09T11:11:14.603Z,17.70
2023-04-09T11:13:45.806Z,18.80
2023-04-09T11:16:23.258Z,20.50
2023-04-09T11:18:56.310Z,18.70
2023-04-09T11:21:31.595Z,17.90
2023-04-09T11:24:00.167Z,19.90
2023-04-09T11:26:37.933Z,17.20
2023-04-09T11:29:09.734Z,18.80
2023-04-09T11:31:38.124Z,16.40
2023-04-09T11:34:13.036Z,14.80
2023-04-09T11:36:42.080Z,15.00
2023-04-09T11:39:12.009Z,14.60
2023-04-09T11:41:41.035Z,14.80
2023-04-09T11:44:09.353Z,16.00
2023-04-09T11:46:40.152Z,16.50
2023-04-09T11:49:10.431Z,16.30
2023-04-09T11:51:40.090Z,14.60
2023-04-09T11:54:08.982Z,17.20
2023-04-09T11:56:37.761Z,17.30
2023-04-09T11:59:06.668Z,19.00
2023-04-09T12:01:35.544Z,18.60
2023-04-09T12:04:05.890Z,18.40
2023-04-09T12:06:40.539Z,18.00
2023-04-09T12:09:13.806Z,17.50
2023-04-09T12:11:47.134Z,18.20
2023-04-09T12:14:18.963Z,17.60
2023-04-09T12:16:51.799Z,17.80
2023-04-09T12:19:25.575Z,14.60
2023-04-09T12:21:58.713Z,14.00
2023-04-09T12:24:29.849Z,14.70
2023-04-09T12:26:58.135Z,16.80
2023-04-09T12:29:27.190Z,16.60
2023-04-09T12:31:55.664Z,17.20
2023-04-09T12:34:24.569Z,18.00
2023-04-09T12:36:52.878Z,18.10
2023-04-09T12:39:21.565Z,17.70
2023-04-09T12:41:49.974Z,17.50
2023-04-09T12:44:18.239Z,16.10
2023-04-09T12:46:46.499Z,17.20
2023-04-09T12:49:16.332Z,15.70
2023-04-09T12:51:44.983Z,16.60
2023-04-09T12:54:13.392Z,14.70
2023-04-09T12:56:45.572Z,15.40
2023-04-09T12:59:18.993Z,15.80
2023-04-09T13:01:47.440Z,13.50
2023-04-09T13:04:16.666Z,14.10
2023-04-09T13:09:51.670Z,14.70
2023-04-09T13:12:21.787Z,13.10
2023-04-09T13:14:54.081Z,11.70
2023-04-09T13:17:23.988Z,12.50
2023-04-09T13:19:52.878Z,11.30
2023-04-09T13:22:21.705Z,13.10
2023-04-09T13:24:51.126Z,12.30
2023-04-09T13:27:19.544Z,10.50
2023-04-09T13:29:47.895Z,12.20
2023-04-09T13:32:18.667Z,13.00
2023-04-09T13:34:47.044Z,13.80
2023-04-09T13:37:15.931Z,9.90
2023-04-09T13:39:46.384Z,7.80
2023-04-09T13:42:16.295Z,4.90
2023-04-09T13:44:47.288Z,5.80
2023-04-09T13:47:17.903Z,6.90
2023-04-09T13:49:46.326Z,5.80
2023-04-09T13:52:15.755Z,9.30
2023-04-09T13:54:44.700Z,7.80
2023-04-09T13:57:12.967Z,6.70
2023-04-09T13:59:47.262Z,6.40
2023-04-09T14:02:15.762Z,8.10
2023-04-09T14:04:45.604Z,7.60
2023-04-09T14:07:13.909Z,4.60
2023-04-09T14:09:43.325Z,7.70
2023-04-09T14:12:14.218Z,8.40
2023-04-09T14:14:44.242Z,8.10
2023-04-09T14:17:12.875Z,8.80
2023-04-09T14:19:41.240Z,8.20
2023-04-09T14:22:10.557Z,8.10
2023-04-09T14:24:40.286Z,8.60
2023-04-09T14:27:11.263Z,9.40
2023-04-09T14:29:39.789Z,9.80
2023-04-09T14:32:09.401Z,9.00
2023-04-09T14:34:39.108Z,8.60
2023-04-09T14:37:08.729Z,8.90
2023-04-09T14:39:37.937Z,8.40
2023-04-09T14:42:06.556Z,8.90
2023-04-09T14:44:36.974Z,8.90
2023-04-09T14:47:05.960Z,8.90
2023-04-09T14:49:34.489Z,8.10
2023-04-09T14:52:02.987Z,8.50
2023-04-09T14:54:32.453Z,8.00
2023-04-09T14:57:03.680Z,8.30
2023-04-09T14:59:32.464Z,9.30
2023-04-09T15:02:01.744Z,9.20
2023-04-09T15:04:30.190Z,9.50
2023-04-09T15:06:58.532Z,9.50
2023-04-09T15:09:27.270Z,9.20
2023-04-09T15:11:57.204Z,10.60
2023-04-09T15:14:31.049Z,13.50
2023-04-09T15:16:59.417Z,15.90
2023-04-09T15:19:27.883Z,19.10
2023-04-09T15:21:56.804Z,21.90
2023-04-09T15:24:25.611Z,23.40
2023-04-09T15:26:57.042Z,21.40
2023-04-09T15:29:26.313Z,22.20
2023-04-09T15:31:54.652Z,21.50
2023-04-09T15:34:23.501Z,17.60
2023-04-09T15:36:52.732Z,17.50
2023-04-09T15:39:24.756Z,15.60
2023-04-09T15:41:58.452Z,15.90
2023-04-09T15:44:39.646Z,16.10
2023-04-09T15:47:19.526Z,15.10
2023-04-09T15:49:47.763Z,15.10
2023-04-09T15:52:16.219Z,12.60
2023-04-09T15:54:47.150Z,13.20
2023-04-09T15:57:15.749Z,12.90
2023-04-09T15:59:47.186Z,14.20
2023-04-09T16:02:15.637Z,14.10
2023-04-09T16:04:43.957Z,13.00
2023-04-09T16:07:16.331Z,11.90
2023-04-09T16:09:46.280Z,14.20
2023-04-09T16:12:14.869Z,13.70
2023-04-09T16:14:43.815Z,12.90
2023-04-09T16:17:12.079Z,11.80
2023-04-09T16:19:42.181Z,12.90
2023-04-09T16:22:12.238Z,12.80
2023-04-09T16:24:40.690Z,11.40
2023-04-09T16:27:08.974Z,11.90
2023-04-09T16:29:38.347Z,14.40
2023-04-09T16:32:06.766Z,12.70
2023-04-09T16:34:36.737Z,12.60
2023-04-09T16:37:08.040Z,12.20
2023-04-09T16:39:36.921Z,12.70
2023-04-09T16:42:05.170Z,12.90
2023-04-09T16:44:33.380Z,11.80
2023-04-09T16:47:02.873Z,12.70
2023-04-09T16:49:32.874Z,13.60
2023-04-09T16:52:02.088Z,12.10
2023-04-09T16:54:31.093Z,12.60
2023-04-09T16:56:59.866Z,13.70
2023-04-09T16:59:28.338Z,13.20
2023-04-09T17:01:56.842Z,13.90
2023-04-09T17:04:25.734Z,16.00
2023-04-09T17:06:54.241Z,17.40
2023-04-09T17:09:22.570Z,17.20
2023-04-09T17:11:53.171Z,17.60
2023-04-09T17:14:21.597Z,18.00
2023-04-09T17:16:52.998Z,19.00
2023-04-09T17:19:22.523Z,19.30
2023-04-09T17:21:51.093Z,18.60
2023-04-09T17:24:19.447Z,20.40
2023-04-09T17:26:47.664Z,19.70
2023-04-09T17:29:17.815Z,19.80
2023-04-09T17:31:50.854Z,21.10
2023-04-09T17:34:24.487Z,21.70
2023-04-09T17:36:57.440Z,20.70
2023-04-09T17:39:26.567Z,18.80
2023-04-09T17:41:57.394Z,20.10
2023-04-09T17:44:27.147Z,18.80
2023-04-09T17:47:04.261Z,18.60
2023-04-09T17:49:35.669Z,17.80
2023-04-09T17:52:03.983Z,15.60
2023-04-09T17:54:34.691Z,16.80
2023-04-09T17:57:04.800Z,16.20
2023-04-09T17:59:39.861Z,17.00
2023-04-09T18:02:09.907Z,15.20
2023-04-09T18:04:38.937Z,16.20
2023-04-09T18:07:08.070Z,15.30
2023-04-09T18:09:40.585Z,16.10
2023-04-09T18:12:12.188Z,16.90
2023-04-09T18:14:44.394Z,21.10
2023-04-09T18:17:14.628Z,19.00
2023-04-09T18:19:46.039Z,19.50
2023-04-09T18:22:14.386Z,18.60
2023-04-09T18:24:42.758Z,20.00
2023-04-09T18:27:13.416Z,20.60
2023-04-09T18:29:42.252Z,18.40
2023-04-09T18:32:10.506Z,21.60
2023-04-09T18:34:40.773Z,23.30
2023-04-09T18:37:09.183Z,22.70
2023-04-09T18:39:37.864Z,20.50
2023-04-09T18:42:06.173Z,19.80
2023-04-09T18:44:37.462Z,18.40
2023-04-09T18:47:09.362Z,19.00
2023-04-09T18:49:39.699Z,19.30
2023-04-09T18:52:11.831Z,19.40
2023-04-09T18:54:42.193Z,18.80
2023-04-09T18:57:14.147Z,19.10
2023-04-09T18:59:45.795Z,18.70
2023-04-09T19:02:14.416Z,18.40
2023-04-09T19:04:42.979Z,15.40
2023-04-09T19:07:11.394Z,16.10
2023-04-09T19:09:43.693Z,13.40
2023-04-09T19:12:19.523Z,12.90
2023-04-09T19:14:47.827Z,11.80
2023-04-09T19:17:16.551Z,12.10
2023-04-09T19:19:45.234Z,15.20
2023-04-09T19:22:14.470Z,16.70
2023-04-09T19:24:45.830Z,20.10
2023-04-09T19:27:14.238Z,23.30
2023-04-09T19:29:45.024Z,24.60
2023-04-09T19:32:13.526Z,24.10
2023-04-09T19:34:43.009Z,24.50
2023-04-09T19:37:11.982Z,25.40
2023-04-09T19:39:43.048Z,26.20
2023-04-09T19:42:11.363Z,31.90
2023-04-09T19:44:39.867Z,30.20
2023-04-09T19:47:08.140Z,34.10
2023-04-09T19:49:37.467Z,27.20
2023-04-09T19:52:07.310Z,25.80
2023-04-09T19:54:35.852Z,24.10
2023-04-09T19:57:11.628Z,23.10
2023-04-09T19:59:43.285Z,23.90
2023-04-09T20:02:11.609Z,24.30
2023-04-09T20:04:40.784Z,25.80
2023-04-09T20:07:09.046Z,28.00
2023-04-09T20:09:41.456Z,31.80
2023-04-09T20:12:10.625Z,29.20
2023-04-09T20:14:53.864Z,28.90
2023-04-09T20:17:22.543Z,29.20
2023-04-09T20:19:55.586Z,30.30
2023-04-09T20:22:24.080Z,33.60
2023-04-09T20:24:59.583Z,34.40
2023-04-09T20:27:28.375Z,34.30
2023-04-09T20:29:56.622Z,35.30
2023-04-09T20:32:25.075Z,33.50
2023-04-09T20:34:53.482Z,33.90
2023-04-09T20:37:22.449Z,33.60
2023-04-09T20:39:50.915Z,32.30
2023-04-09T20:42:19.636Z,32.60
2023-04-09T20:44:47.862Z,29.70
2023-04-09T20:47:16.558Z,29.30
2023-04-09T20:49:46.774Z,30.30
2023-04-09T20:52:15.513Z,34.20
2023-04-09T20:54:44.848Z,31.30
2023-04-09T20:57:13.992Z,30.40
2023-04-09T20:59:42.500Z,31.10
2023-04-09T21:02:13.131Z,30.50
2023-04-09T21:04:41.481Z,30.30
2023-04-09T21:07:09.707Z,33.00
2023-04-09T21:09:38.831Z,31.50
2023-04-09T21:12:07.376Z,33.70
2023-04-09T21:14:35.676Z,31.60
2023-04-09T21:17:04.057Z,33.30
2023-04-09T21:19:32.302Z,33.20
2023-04-09T21:22:00.557Z,34.60
2023-04-09T21:24:28.838Z,36.00
2023-04-09T21:26:58.914Z,36.40
2023-04-09T21:29:28.439Z,37.50
2023-04-09T21:31:56.765Z,37.50
2023-04-09T21:34:25.021Z,38.30
2023-04-09T21:36:55.604Z,37.00
2023-04-09T21:39:24.251Z,38.40
2023-04-09T21:41:54.112Z,38.90
2023-04-09T21:44:22.316Z,37.70
2023-04-09T21:46:50.500Z,38.80
2023-04-09T21:49:18.674Z,39.20
2023-04-09T21:51:47.218Z,40.60
2023-04-09T21:54:15.469Z,43.20
2023-04-09T21:56:43.813Z,42.50
2023-04-09T21:59:12.032Z,41.30
2023-04-09T22:01:40.250Z,39.80
2023-04-09T22:04:09.780Z,41.70
2023-04-09T22:06:38.116Z,42.70
2023-04-09T22:09:06.450Z,42.20
2023-04-09T22:11:34.703Z,40.80
2023-04-09T22:14:02.976Z,40.30
2023-04-09T22:16:31.205Z,37.40
2023-04-09T22:18:59.574Z,38.80
2023-04-09T22:21:28.001Z,37.30
2023-04-09T22:23:56.408Z,38.90
2023-04-09T22:26:27.856Z,37.30
2023-04-09T22:28:56.481Z,39.70
2023-04-09T22:31:27.468Z,38.70
2023-04-09T22:33:56.073Z,39.60
2023-04-09T22:36:25.034Z,38.90
2023-04-09T22:38:53.421Z,37.50
2023-04-09T22:41:22.960Z,38.30
2023-04-09T22:43:52.588Z,36.50
2023-04-09T22:46:21.570Z,32.50
2023-04-09T22:48:50.235Z,32.20
2023-04-09T22:51:18.560Z,28.80
2023-04-09T22:53:47.153Z,28.90
2023-04-09T22:56:15.314Z,30.00
2023-04-09T22:58:43.529Z,26.60
2023-04-09T23:01:11.867Z,27.00
2023-04-09T23:03:40.125Z,23.60
2023-04-09T23:06:09.102Z,23.90
2023-04-09T23:08:38.739Z,24.70
2023-04-09T23:11:08.932Z,23.70
2023-04-09T23:13:38.951Z,24.70
2023-04-09T23:16:08.618Z,23.80
2023-04-09T23:18:37.622Z,24.70
2023-04-09T23:21:10.744Z,22.40
2023-04-09T23:23:39.521Z,25.10
2023-04-09T23:26:08.086Z,27.30
2023-04-09T23:28:36.234Z,22.60
2023-04-09T23:31:04.727Z,23.60
2023-04-09T23:33:33.539Z,23.10
2023-04-09T23:36:01.735Z,21.00
2023-04-09T23:38:29.996Z,21.10
2023-04-09T23:40:58.805Z,15.60
2023-04-09T23:43:26.971Z,21.00
2023-04-09T23:45:55.657Z,18.60
2023-04-09T23:48:23.907Z,20.90
2023-04-09T23:50:52.099Z,21.10
2023-04-09T23:53:20.397Z,19.50
2023-04-09T23:55:50.266Z,18.80
2023-04-09T23:58:19.065Z,18.20
